Time;durP1;ratioP1;P1;durP2;ratioP2;P2;SDS_P1;SDS_P2;PMS_P1;PMS_P2;Temp;Humidity;BMP_temperature;BMP_pressure;BME280_temperature;BME280_humidity;BME280_pressure;Samples;Min_cycle;Max_cycle;Signal;HPM_P1;HPM_P2
2022/06/04 07:59:05;;;;;;;20.13;17.13;;;;;;;16.40;63.28;101830.88;5279318;28;20386;-71
2022/06/04 08:01:36;;;;;;;12.95;10.18;;;;;;;16.36;62.40;101848.59;5263789;28;20107;-71
2022/06/04 08:04:09;;;;;;;9.32;7.50;;;;;;;16.48;62.73;101838.56;5258795;28;20057;-72
2022/06/04 08:06:41;;;;;;;11.63;8.18;;;;;;;16.33;62.95;101840.81;5255462;28;20021;-72
2022/06/04 08:09:12;;;;;;;9.95;8.27;;;;;;;16.28;63.02;101844.50;5260871;28;20024;-73
2022/06/04 08:11:44;;;;;;;8.48;7.68;;;;;;;16.40;62.07;101844.88;5257409;28;20033;-73
2022/06/04 08:14:21;;;;;;;10.07;8.13;;;;;;;16.44;62.48;101840.34;5256862;28;20021;-72
2022/06/04 08:16:57;;;;;;;9.20;8.27;;;;;;;16.43;62.48;101835.03;5258422;28;20017;-72
2022/06/04 08:19:29;;;;;;;;;;;;;;;16.62;62.15;101832.22;5258554;28;20028;-72
2022/06/04 08:22:01;;;;;;;9.18;7.97;;;;;;;16.28;62.25;101827.72;5249547;28;19939;-74
2022/06/04 08:24:35;;;;;;;10.55;8.27;;;;;;;16.35;62.43;101835.75;5253674;28;20021;-73
2022/06/04 08:27:07;;;;;;;9.50;8.17;;;;;;;16.39;62.45;101823.63;5257230;28;20033;-72
2022/06/04 08:29:38;;;;;;;10.50;7.72;;;;;;;16.44;62.10;101820.75;5252577;28;20040;-73
2022/06/04 08:32:16;;;;;;;11.35;8.27;;;;;;;16.43;62.64;101813.47;5252299;28;20071;-72
2022/06/04 08:34:47;;;;;;;10.57;8.73;;;;;;;16.57;62.70;101819.13;5257994;28;20032;-74
2022/06/04 08:37:18;;;;;;;10.52;8.65;;;;;;;16.48;62.40;101815.34;5258211;28;20033;-74
2022/06/04 08:39:50;;;;;;;10.85;9.40;;;;;;;16.51;62.28;101818.41;5258151;28;20091;-73
2022/06/04 08:42:50;;;;;;;9.50;8.27;;;;;;;16.58;62.43;101822.75;5258826;28;20425;-72
2022/06/04 08:45:21;;;;;;;10.02;8.98;;;;;;;16.53;62.18;101829.25;5258286;28;20048;-71
2022/06/04 08:47:56;;;;;;;10.20;7.10;;;;;;;16.70;61.96;101835.13;5245128;28;20028;-71
2022/06/04 08:50:34;;;;;;;14.10;12.27;;;;;;;16.77;62.34;101831.94;5256338;28;20021;-70
2022/06/04 08:53:05;;;;;;;12.63;10.90;;;;;;;16.79;62.02;101826.03;5257829;28;20424;-69
2022/06/04 08:59:13;;;;;;;11.00;8.93;;;;;;;16.80;61.94;101845.34;5256066;28;20041;-69
2022/06/04 09:01:52;;;;;;;9.43;7.07;;;;;;;16.99;61.51;101845.28;5257050;28;20021;-69
2022/06/04 09:04:44;;;;;;;9.45;8.50;;;;;;;16.97;61.72;101849.53;5246154;28;20385;-69
2022/06/04 09:07:37;;;;;;;9.98;8.50;;;;;;;17.13;61.28;101839.72;5237034;28;20029;-69
2022/06/04 09:10:19;;;;;;;10.43;9.02;;;;;;;17.29;61.06;101840.22;5242951;28;20388;-69
2022/06/04 09:13:17;;;;;;;10.55;8.38;;;;;;;17.55;60.11;101834.91;5244370;28;20433;-69
2022/06/04 09:15:52;;;;;;;8.63;7.80;;;;;;;17.70;59.74;101834.59;5243175;28;20030;-69
2022/06/04 09:18:34;;;;;;;9.20;8.30;;;;;;;17.88;59.45;101835.63;5243963;28;20105;-69
2022/06/04 09:21:10;;;;;;;9.23;8.10;;;;;;;17.86;59.22;101831.47;5241221;28;20400;-69
2022/06/04 09:23:51;;;;;;;9.73;8.82;;;;;;;17.88;58.93;101834.81;5241740;28;20014;-71
2022/06/04 09:26:32;;;;;;;10.02;9.00;;;;;;;17.89;58.91;101847.66;5243665;28;20021;-72
2022/06/04 09:29:07;;;;;;;10.75;8.30;;;;;;;17.69;58.85;101846.97;5243238;28;20032;-71
2022/06/04 09:31:46;;;;;;;9.27;8.27;;;;;;;17.80;59.51;101845.63;5244093;28;20032;-70
2022/06/04 09:34:31;;;;;;;14.52;9.95;;;;;;;17.79;59.20;101841.16;5243703;28;20063;-70
2022/06/04 09:37:06;;;;;;;10.38;9.20;;;;;;;17.87;59.01;101842.41;5241946;28;20017;-71
2022/06/04 09:39:40;;;;;;;11.30;9.48;;;;;;;18.06;59.09;101842.22;5233367;28;20424;-70
2022/06/04 09:42:11;;;;;;;13.65;10.02;;;;;;;18.20;58.39;101847.78;5225909;28;20069;-70
2022/06/04 09:44:56;;;;;;;9.82;8.82;;;;;;;18.39;57.88;101845.66;5221982;28;20097;-70
2022/06/04 09:47:38;;;;;;;32.40;28.90;;;;;;;18.45;57.86;101847.16;5222748;28;20073;-71
2022/06/04 09:50:18;;;;;;;13.93;10.90;;;;;;;18.42;58.00;101849.78;5235811;28;20052;-70
2022/06/04 09:53:17;;;;;;;10.60;9.05;;;;;;;18.46;57.62;101848.84;5242660;28;20041;-70
2022/06/04 09:56:09;;;;;;;10.68;9.55;;;;;;;18.43;57.46;101857.06;5241794;28;20029;-70
2022/06/04 09:58:46;;;;;;;10.82;9.32;;;;;;;18.44;57.69;101853.13;5241955;28;20124;-68
2022/06/04 10:01:18;;;;;;;13.65;9.70;;;;;;;18.41;57.98;101848.97;5242903;28;20048;-70
2022/06/04 10:04:04;;;;;;;14.40;11.27;;;;;;;18.47;58.05;101850.50;5242053;28;20061;-70
2022/06/04 10:06:35;;;;;;;11.48;9.38;;;;;;;18.58;58.42;101859.47;5243504;28;20037;-70
2022/06/04 10:12:17;;;;;;;17.77;10.27;;;;;;;18.64;57.95;101858.22;5236643;28;20033;-71
2022/06/04 10:14:59;;;;;;;11.07;10.02;;;;;;;18.63;57.53;101859.34;5243665;28;20026;-71
2022/06/04 10:17:37;;;;;;;10.95;9.75;;;;;;;18.72;57.59;101853.00;5242811;28;20082;-71
2022/06/04 10:20:22;;;;;;;15.13;9.95;;;;;;;18.67;57.55;101863.19;5238992;28;20037;-71
2022/06/04 10:22:54;;;;;;;11.63;10.50;;;;;;;18.73;56.96;101854.63;5240748;28;20029;-68
2022/06/04 10:25:33;;;;;;;15.88;10.20;;;;;;;18.77;57.83;101861.31;5241669;28;20486;-71
2022/06/04 10:28:18;;;;;;;11.05;9.95;;;;;;;18.86;57.41;101853.75;5240771;28;20026;-71
2022/06/04 10:31:04;;;;;;;13.07;11.77;;;;;;;18.86;57.50;101862.19;5233741;28;20091;-71
2022/06/04 10:33:56;;;;;;;12.98;10.63;;;;;;;18.96;57.68;101859.09;5242062;28;20076;-71
2022/06/04 10:36:45;;;;;;;11.48;10.00;;;;;;;19.15;56.76;101863.66;5242802;28;20075;-71
2022/06/04 10:39:35;;;;;;;16.65;10.30;;;;;;;19.31;56.58;101862.09;5241854;28;20025;-71
2022/06/04 10:42:24;;;;;;;15.15;12.43;;;;;;;19.47;56.27;101863.28;5241388;28;20025;-69
2022/06/04 10:45:16;;;;;;;12.27;10.25;;;;;;;19.68;55.63;101857.91;5241677;28;20025;-68
2022/06/04 10:48:18;;;;;;;11.07;10.07;;;;;;;19.77;55.65;101860.78;5230800;28;20017;-69
2022/06/04 10:51:28;;;;;;;14.82;13.32;;;;;;;19.96;54.59;101863.28;5239445;28;20045;-68
2022/06/04 10:54:02;;;;;;;12.52;10.88;;;;;;;20.04;54.13;101864.44;5222880;28;20545;-68
2022/06/04 10:56:51;;;;;;;13.43;10.80;;;;;;;20.09;54.04;101861.47;5241687;28;20045;-69
2022/06/04 10:59:46;;;;;;;12.20;10.88;;;;;;;20.10;53.99;101863.16;5241236;28;20057;-68
2022/06/04 11:02:56;;;;;;;12.05;10.77;;;;;;;20.34;54.07;101859.81;5239692;28;20018;-69
2022/06/04 11:05:39;;;;;;;11.77;10.43;;;;;;;20.46;53.87;101857.19;5230206;28;20049;-68
2022/06/04 11:08:41;;;;;;;23.58;18.73;;;;;;;20.42;53.28;101864.63;5240731;28;20048;-69
2022/06/04 11:11:20;;;;;;;17.70;16.05;;;;;;;20.44;53.51;101864.31;5241514;28;20036;-68
2022/06/04 11:13:56;;;;;;;16.75;15.05;;;;;;;20.46;52.73;101856.34;5241463;28;20060;-68
2022/06/04 11:16:37;;;;;;;12.50;10.80;;;;;;;20.60;53.05;101859.84;5239836;28;20069;-67
2022/06/04 11:19:32;;;;;;;11.45;10.27;;;;;;;20.68;52.77;101867.44;5240357;28;20047;-68
2022/06/04 11:22:10;;;;;;;12.10;10.27;;;;;;;20.72;52.33;101873.25;5247830;28;20108;-69
2022/06/04 11:24:56;;;;;;;11.25;10.15;;;;;;;20.81;52.35;101865.59;5240473;28;20059;-69
2022/06/04 11:27:39;;;;;;;18.73;16.30;;;;;;;20.88;52.43;101867.91;5241418;28;20029;-69
2022/06/04 11:30:18;;;;;;;13.23;11.93;;;;;;;20.91;52.68;101864.41;5237839;28;20030;-69
2022/06/04 11:33:04;;;;;;;12.38;10.20;;;;;;;20.99;51.75;101855.13;5240253;28;20053;-69
2022/06/04 11:35:41;;;;;;;13.32;11.60;;;;;;;21.12;51.63;101858.91;5240121;28;20473;-67
2022/06/04 11:38:34;;;;;;;13.13;9.88;;;;;;;21.39;51.45;101846.34;5227792;28;20599;-69
2022/06/04 11:41:17;;;;;;;11.23;10.15;;;;;;;21.34;51.52;101843.69;5241242;28;20021;-69
2022/06/04 11:44:05;;;;;;;11.43;10.32;;;;;;;21.43;51.37;101841.69;5240559;28;20033;-71
2022/06/04 11:46:48;;;;;;;12.95;11.70;;;;;;;21.37;50.45;101831.72;5237262;28;20598;-70
2022/06/04 11:49:32;;;;;;;13.70;11.50;;;;;;;21.50;50.92;101839.19;5238448;28;20034;-72
2022/06/04 11:52:18;;;;;;;13.35;12.05;;;;;;;21.50;50.03;101836.38;5240426;28;20060;-73
2022/06/04 11:55:17;;;;;;;12.60;10.93;;;;;;;21.53;50.33;101823.56;5242007;28;20436;-71
2022/06/04 11:57:57;;;;;;;10.95;9.85;;;;;;;21.63;50.16;101828.81;5222704;28;20053;-71
2022/06/04 12:00:37;;;;;;;11.40;10.27;;;;;;;21.59;50.25;101823.00;5238832;28;20030;-72
2022/06/04 12:03:31;;;;;;;11.45;10.15;;;;;;;21.66;50.13;101822.47;5238866;28;20380;-70
2022/06/04 12:06:16;;;;;;;15.73;9.80;;;;;;;21.76;49.74;101821.25;5239271;28;20484;-70
2022/06/04 12:09:00;;;;;;;11.25;10.15;;;;;;;21.90;49.49;101813.34;5220553;28;20030;-70
2022/06/04 12:11:54;;;;;;;12.70;11.45;;;;;;;22.03;49.30;101808.59;5238214;28;20076;-74
2022/06/04 12:14:49;;;;;;;15.00;11.93;;;;;;;22.04;48.95;101799.78;5253995;28;20057;-72
2022/06/04 12:17:26;;;;;;;12.23;9.88;;;;;;;22.19;48.83;101798.34;5240703;28;20392;-71
2022/06/04 12:26:25;;;;;;;11.95;10.75;;;;;;;22.41;48.58;101797.13;5230597;28;20468;-74
2022/06/04 12:28:57;;;;;;;11.45;10.35;;;;;;;22.48;48.36;101793.75;5228358;28;20153;-70
2022/06/04 12:31:34;;;;;;;11.63;10.57;;;;;;;22.61;48.39;101794.63;5240314;28;20067;-72
2022/06/04 12:34:26;;;;;;;11.95;9.35;;;;;;;22.85;48.21;101794.66;5240626;28;20195;-71
2022/06/04 12:36:58;;;;;;;10.15;9.07;;;;;;;22.80;47.35;101792.06;5240839;28;20026;-71
2022/06/04 12:39:40;;;;;;;11.52;9.70;;;;;;;22.91;47.19;101792.44;5239543;28;20026;-70
2022/06/04 12:42:17;;;;;;;13.18;10.75;;;;;;;22.81;47.37;101804.22;5240392;28;20026;-73
2022/06/04 12:45:01;;;;;;;14.75;9.93;;;;;;;22.91;48.36;101804.59;5235325;28;20042;-72
2022/06/04 12:47:37;;;;;;;12.02;10.18;;;;;;;23.11;47.59;101802.88;5240939;28;20033;-71
2022/06/04 12:50:18;;;;;;;11.55;9.27;;;;;;;23.18;47.13;101799.44;5244522;28;20103;-73
2022/06/04 12:53:07;;;;;;;20.35;18.40;;;;;;;23.12;47.19;101801.69;5243686;28;20108;-72
2022/06/04 12:55:50;;;;;;;10.30;9.35;;;;;;;23.22;47.04;101811.72;5244054;28;20033;-75
2022/06/04 12:58:37;;;;;;;14.68;10.52;;;;;;;23.33;47.34;101803.56;5243916;28;20055;-76
2022/06/04 13:01:20;;;;;;;11.93;8.43;;;;;;;23.65;46.30;101796.13;5241527;28;20030;-73
2022/06/04 13:04:10;;;;;;;16.98;14.57;;;;;;;23.78;46.24;101797.78;5242551;28;20393;-71
2022/06/04 13:06:57;;;;;;;17.33;14.27;;;;;;;23.70;46.27;101789.38;5243336;28;20026;-68
2022/06/04 13:09:47;;;;;;;14.27;9.43;;;;;;;23.91;45.81;101789.25;5243741;28;20030;-69
2022/06/04 13:12:33;;;;;;;10.30;8.23;;;;;;;24.00;44.99;101789.94;5243500;28;20111;-70
2022/06/04 13:15:28;;;;;;;14.75;8.52;;;;;;;24.08;45.05;101789.78;5242985;28;20030;-71
2022/06/04 13:18:03;;;;;;;8.65;7.93;;;;;;;24.30;45.48;101793.25;5243280;28;20377;-69
2022/06/04 13:20:50;;;;;;;9.02;8.27;;;;;;;24.12;44.84;101800.41;5238902;28;20026;-71
2022/06/04 13:23:27;;;;;;;9.88;8.85;;;;;;;24.19;44.28;101784.44;5238024;28;20033;-70
2022/06/04 13:26:17;;;;;;;11.80;10.68;;;;;;;24.32;44.91;101792.91;5237156;28;20036;-71
2022/06/04 13:28:49;;;;;;;15.15;13.73;;;;;;;24.47;44.50;101781.63;5242743;28;20065;-71
2022/06/04 13:31:24;;;;;;;11.95;8.45;;;;;;;24.59;44.35;101785.56;5243377;28;20049;-69
2022/06/04 13:34:10;;;;;;;10.52;8.27;;;;;;;24.56;43.22;101774.94;5243235;28;20033;-70
2022/06/04 13:36:44;;;;;;;7.85;7.10;;;;;;;24.63;43.45;101761.78;5231231;28;20033;-70
2022/06/04 13:39:18;;;;;;;14.57;7.20;;;;;;;24.85;43.24;101759.50;5243289;28;20072;-69
2022/06/04 13:42:01;;;;;;;10.88;7.72;;;;;;;24.68;42.90;101772.88;5243000;28;20025;-70
2022/06/04 13:44:38;;;;;;;9.82;8.85;;;;;;;24.57;43.05;101753.91;5243145;28;20025;-70
2022/06/04 13:47:12;;;;;;;9.77;8.32;;;;;;;24.82;42.94;101751.75;5243668;28;20428;-69
2022/06/04 13:49:47;;;;;;;9.70;7.93;;;;;;;24.93;43.42;101750.84;5242568;28;20108;-69
2022/06/04 13:52:21;;;;;;;9.10;7.25;;;;;;;25.00;42.36;101750.16;5240157;28;20040;-69
2022/06/04 13:54:59;;;;;;;9.53;7.50;;;;;;;25.12;42.55;101752.09;5249129;28;20033;-69
2022/06/04 13:57:40;;;;;;;9.15;6.43;;;;;;;25.26;42.69;101751.63;5254069;28;20042;-70
2022/06/04 14:00:20;;;;;;;8.38;7.55;;;;;;;25.16;41.72;101747.38;5242608;28;20078;-74
2022/06/04 14:03:04;;;;;;;9.07;8.25;;;;;;;24.95;42.45;101751.28;5242556;28;20034;-71
2022/06/04 14:05:51;;;;;;;11.82;8.18;;;;;;;25.04;42.27;101747.44;5242662;28;20107;-70
2022/06/04 14:08:26;;;;;;;9.02;7.93;;;;;;;24.99;42.07;101740.03;5242743;28;20100;-71
2022/06/04 14:11:00;;;;;;;10.57;7.10;;;;;;;25.04;42.12;101748.25;5229865;28;20038;-74
2022/06/04 14:13:55;;;;;;;10.87;7.73;;;;;;;25.21;41.87;101741.41;5242863;28;20075;-70
2022/06/04 14:16:49;;;;;;;8.23;6.75;;;;;;;25.29;42.58;101739.56;5244822;28;20045;-71
2022/06/04 14:19:55;;;;;;;7.65;6.80;;;;;;;25.28;42.16;101735.06;5241976;28;20155;-71
2022/06/04 14:22:53;;;;;;;9.98;6.85;;;;;;;25.49;42.12;101731.91;5221840;28;20037;-72
2022/06/04 14:25:40;;;;;;;8.48;7.63;;;;;;;25.53;41.66;101727.97;5234184;28;20048;-72
2022/06/04 14:28:36;;;;;;;8.05;7.18;;;;;;;25.48;41.53;101725.41;5236143;28;20543;-73
2022/06/04 14:31:23;;;;;;;8.15;6.50;;;;;;;25.52;41.97;101722.66;5241996;28;20427;-73
2022/06/04 14:34:00;;;;;;;6.47;5.78;;;;;;;25.71;41.73;101724.69;5242390;28;20388;-74
2022/06/04 14:36:32;;;;;;;9.27;7.15;;;;;;;25.52;41.47;101725.50;5237970;28;20029;-73
2022/06/04 14:39:05;;;;;;;9.43;6.43;;;;;;;25.78;41.25;101727.69;5241186;28;20072;-73
2022/06/04 14:41:52;;;;;;;9.70;6.65;;;;;;;25.68;41.30;101722.59;5242183;28;20112;-74
2022/06/04 14:44:42;;;;;;;8.63;6.07;;;;;;;25.88;41.11;101727.13;5241067;28;20092;-73
2022/06/04 14:47:39;;;;;;;7.00;6.28;;;;;;;25.92;41.05;101727.19;5225089;28;20389;-73
2022/06/04 14:50:59;;;;;;;7.82;6.38;;;;;;;26.12;40.41;101719.47;5242232;28;20071;-73
2022/06/04 14:53:31;;;;;;;8.02;6.05;;;;;;;26.02;40.65;101726.59;5231574;28;20038;-72
2022/06/04 14:56:56;;;;;;;7.07;5.90;;;;;;;25.91;40.71;101723.53;5242063;28;20445;-72
2022/06/04 14:59:46;;;;;;;7.97;6.15;;;;;;;25.86;40.84;101714.50;5218218;28;20042;-73
2022/06/04 15:02:47;;;;;;;18.05;16.08;;;;;;;25.91;41.02;101708.50;5207879;28;20038;-77
2022/06/04 15:05:48;;;;;;;7.55;6.05;;;;;;;25.91;40.57;101703.66;5220422;28;20037;-77
2022/06/04 15:08:19;;;;;;;7.72;5.63;;;;;;;25.68;40.41;101702.72;5220404;28;20037;-74
2022/06/04 15:11:09;;;;;;;5.93;5.32;;;;;;;25.76;40.99;101704.50;5232401;28;20079;-85
2022/06/04 15:14:13;;;;;;;6.47;5.80;;;;;;;25.77;40.76;101700.47;5243187;28;20029;-84
2022/06/04 15:16:55;;;;;;;8.52;7.43;;;;;;;25.84;41.11;101692.09;5241984;28;20029;-77
2022/06/04 15:19:42;;;;;;;7.60;5.22;;;;;;;25.99;41.09;101693.25;5249221;28;20071;-77
2022/06/04 15:22:14;;;;;;;5.60;4.50;;;;;;;25.96;40.97;101691.97;5243803;28;20437;-78
2022/06/04 15:25:19;;;;;;;7.45;5.43;;;;;;;25.96;40.95;101696.84;5241530;28;20120;-77
2022/06/04 15:28:09;;;;;;;13.80;9.05;;;;;;;26.10;40.24;101694.28;5240632;28;20065;-76
2022/06/04 15:34:00;;;;;;;8.50;5.60;;;;;;;25.93;40.21;101687.03;5221851;28;20042;-82
2022/06/04 15:36:48;;;;;;;;;;;;;;;26.11;39.75;101686.59;5239122;28;20388;-81
2022/06/04 15:39:44;;;;;;;4.40;4.10;;;;;;;25.89;40.60;101682.47;5262732;28;19917;-80
2022/06/04 15:42:22;;;;;;;6.50;4.88;;;;;;;25.80;40.25;101674.16;5245508;28;20121;-80
2022/06/04 15:45:03;;;;;;;5.38;4.32;;;;;;;25.80;40.49;101669.31;5242578;28;20104;-81
2022/06/04 15:47:53;;;;;;;4.97;4.57;;;;;;;25.84;40.31;101675.03;5244129;28;20033;-79
2022/06/04 15:56:34;;;;;;;8.38;4.97;;;;;;;25.85;40.25;101670.22;5245329;28;20033;-76
2022/06/04 15:59:17;;;;;;;5.47;4.43;;;;;;;25.78;40.19;101668.03;5250390;28;20105;-75
2022/06/04 16:01:57;;;;;;;4.80;4.40;;;;;;;25.88;40.13;101664.63;5243401;28;20037;-75
2022/06/04 16:04:38;;;;;;;7.72;5.00;;;;;;;25.76;40.09;101661.91;5241841;28;20119;-74
2022/06/04 16:07:26;;;;;;;7.22;5.18;;;;;;;25.84;40.35;101669.38;5242040;28;20025;-73
2022/06/04 16:10:12;;;;;;;6.75;3.85;;;;;;;25.96;39.93;101676.94;5222641;28;20055;-73
2022/06/04 16:12:56;;;;;;;4.57;3.88;;;;;;;26.01;39.94;101677.47;5219153;28;20053;-75
2022/06/04 16:16:14;;;;;;;4.80;3.83;;;;;;;26.10;40.19;101676.41;5233744;28;20030;-87
2022/06/04 16:18:48;;;;;;;6.15;4.03;;;;;;;26.10;39.53;101677.22;5241513;28;20038;-80
2022/06/04 16:21:38;;;;;;;7.32;3.72;;;;;;;26.11;40.18;101664.66;5243682;28;20476;-83
2022/06/04 16:24:16;;;;;;;6.82;4.47;;;;;;;26.02;40.39;101676.25;5234218;28;20060;-83
2022/06/04 16:26:54;;;;;;;5.45;4.95;;;;;;;26.04;40.08;101667.38;5231346;28;20076;-82
2022/06/04 16:29:28;;;;;;;5.30;4.60;;;;;;;25.70;40.17;101658.53;5246246;28;20030;-83
2022/06/04 16:32:05;;;;;;;8.02;4.45;;;;;;;25.79;40.52;101658.31;5245390;28;20037;-83
2022/06/04 16:34:59;;;;;;;6.10;4.53;;;;;;;26.00;40.22;101658.78;5240888;28;20504;-83
2022/06/04 16:37:42;;;;;;;5.68;4.43;;;;;;;26.13;40.44;101661.44;5230604;28;20038;-85
2022/06/04 16:41:53;;;;;;;5.20;4.57;;;;;;;26.05;40.18;101665.34;5245438;28;20068;-85
2022/06/04 16:43:11;;;;;;;4.63;4.00;;;;;;;26.14;40.03;101660.25;5242118;28;20041;-81
2022/06/04 16:45:50;;;;;;;5.22;4.72;;;;;;;26.24;40.20;101660.44;5246435;28;20433;-84
2022/06/04 16:48:27;;;;;;;4.82;4.32;;;;;;;26.34;39.73;101658.19;5235687;28;20052;-87
2022/06/04 16:51:08;;;;;;;4.75;4.35;;;;;;;26.40;39.34;101662.34;5248003;28;20524;-81
2022/06/04 16:53:43;;;;;;;5.75;4.43;;;;;;;26.21;39.29;101649.84;5253776;28;20121;-83
2022/06/04 16:56:14;;;;;;;4.65;4.13;;;;;;;26.35;39.50;101652.09;5252655;28;20025;-85
2022/06/04 16:58:48;;;;;;;6.03;5.07;;;;;;;26.35;39.62;101635.03;5259356;28;20053;-86
2022/06/04 17:01:27;;;;;;;4.80;4.30;;;;;;;26.37;39.67;101646.03;5258106;28;20116;-85
2022/06/04 17:04:31;;;;;;;12.23;5.53;;;;;;;26.32;39.72;101632.16;5256876;28;20025;-85
2022/06/04 17:07:39;;;;;;;4.88;4.18;;;;;;;26.48;39.81;101640.53;5249301;28;20037;-86
2022/06/04 17:10:34;;;;;;;6.60;5.20;;;;;;;26.47;39.62;101634.03;5248969;28;20049;-84
2022/06/04 17:13:40;;;;;;;6.30;5.07;;;;;;;26.48;39.88;101629.97;5244909;28;20054;-87
2022/06/04 17:16:32;;;;;;;7.03;5.60;;;;;;;26.38;39.83;101631.47;5258440;28;20042;-86
2022/06/04 17:19:27;;;;;;;6.07;4.38;;;;;;;26.53;39.87;101631.72;5263814;28;20511;-86
2022/06/04 17:22:23;;;;;;;6.57;4.93;;;;;;;26.60;39.59;101637.53;5248180;28;20480;-86
2022/06/04 17:25:03;;;;;;;7.78;5.40;;;;;;;26.50;39.97;101633.28;5245199;28;20075;-86
2022/06/04 17:27:46;;;;;;;5.85;5.13;;;;;;;26.56;40.02;101633.78;5248415;28;20076;-86
2022/06/04 17:30:27;;;;;;;5.75;4.28;;;;;;;26.41;39.95;101638.41;5239271;28;20033;-86
